Time;durP1;ratioP1;P1;durP2;ratioP2;P2;SDS_P1;SDS_P2;PMS_P1;PMS_P2;Temp;Humidity;BMP_temperature;BMP_pressure;BME280_temperature;BME280_humidity;BME280_pressure;Samples;Min_cycle;Max_cycle;Signal;HPM_P1;HPM_P2
2024/02/27 00:00:10;;;;;;;6.60;4.57;;;9.50;59.20;;;4.72;100.00;94331.84;4990533;28;20053;-49
2024/02/27 00:02:38;;;;;;;6.03;4.30;;;9.50;59.80;;;4.69;100.00;94329.72;4988975;28;20052;-49
2024/02/27 00:05:04;;;;;;;7.93;4.80;;;9.50;59.20;;;4.66;100.00;94324.97;4991308;28;20120;-52
2024/02/27 00:07:30;;;;;;;6.20;4.70;;;9.50;59.30;;;4.66;100.00;94324.97;4991304;28;20416;-55
2024/02/27 00:09:58;;;;;;;6.85;4.45;;;9.50;59.30;;;4.65;100.00;94315.47;4990656;28;20025;-49
2024/02/27 00:12:25;;;;;;;9.73;5.57;;;9.50;59.30;;;4.60;100.00;94324.16;4991702;28;20477;-49
2024/02/27 00:14:53;;;;;;;5.90;4.38;;;9.50;59.30;;;4.58;100.00;94315.72;4990458;28;20057;-49
2024/02/27 00:17:21;;;;;;;7.78;4.30;;;9.50;59.40;;;4.60;100.00;94329.41;4990639;28;20030;-49
2024/02/27 00:19:47;;;;;;;6.55;4.78;;;9.50;59.50;;;4.64;100.00;94327.88;4991017;28;20033;-51
2024/02/27 00:22:13;;;;;;;7.07;4.50;;;9.50;59.60;;;4.72;100.00;94323.94;4990465;28;20028;-51
2024/02/27 00:24:39;;;;;;;6.35;4.60;;;9.50;59.70;;;4.78;100.00;94330.81;4991202;28;20029;-49
2024/02/27 00:27:05;;;;;;;6.20;4.82;;;9.50;59.70;;;4.86;100.00;94324.25;4989831;28;20488;-48
2024/02/27 00:29:33;;;;;;;9.15;5.38;;;9.50;59.80;;;4.95;100.00;94312.16;4990068;28;20079;-56
2024/02/27 00:31:59;;;;;;;6.72;4.43;;;9.60;60.00;;;5.02;100.00;94312.69;4990829;28;20026;-49
2024/02/27 00:34:25;;;;;;;7.30;4.95;;;9.60;60.00;;;5.05;100.00;94301.63;4990130;28;20033;-49
2024/02/27 00:36:51;;;;;;;7.40;5.20;;;9.60;60.00;;;5.10;100.00;94303.47;4988011;28;20041;-50
2024/02/27 00:39:17;;;;;;;8.50;5.53;;;9.70;60.10;;;5.14;100.00;94309.00;4990027;28;20064;-49
2024/02/27 00:41:48;;;;;;;8.65;5.10;;;9.70;60.10;;;5.16;100.00;94302.41;4991118;28;20535;-49
2024/02/27 00:44:14;;;;;;;9.48;5.65;;;9.70;60.10;;;5.19;100.00;94311.66;4990378;28;20080;-57
2024/02/27 00:46:40;;;;;;;8.82;5.93;;;9.80;60.10;;;5.23;100.00;94296.88;4989865;28;20028;-48
2024/02/27 00:49:06;;;;;;;6.93;4.90;;;9.80;60.20;;;5.24;100.00;94287.94;4990659;28;20338;-49
2024/02/27 00:51:32;;;;;;;9.38;5.43;;;9.80;60.30;;;5.26;100.00;94283.94;4989615;28;20025;-49
2024/02/27 00:53:58;;;;;;;7.38;5.53;;;9.90;60.40;;;5.29;100.00;94280.00;4990705;28;20026;-49
2024/02/27 00:56:24;;;;;;;9.50;5.45;;;9.90;60.40;;;5.30;100.00;94282.38;4989894;28;20030;-49
2024/02/27 00:58:50;;;;;;;9.73;5.97;;;9.90;60.40;;;5.34;100.00;94287.94;4990101;28;20045;-52
2024/02/27 01:01:17;;;;;;;9.05;5.80;;;9.90;60.40;;;5.30;100.00;94292.94;4990646;28;20026;-53
2024/02/27 01:03:43;;;;;;;7.70;5.25;;;9.90;60.30;;;5.30;100.00;94300.88;4989707;28;20032;-53
2024/02/27 01:06:10;;;;;;;8.02;5.53;;;9.90;60.30;;;5.30;100.00;94300.09;4990472;28;20052;-50
2024/02/27 01:08:36;;;;;;;8.68;5.30;;;10.00;60.30;;;5.29;100.00;94307.19;4989196;28;20054;-53
2024/02/27 01:11:02;;;;;;;6.80;5.20;;;9.90;60.30;;;5.33;100.00;94310.13;4990471;28;20022;-51
2024/02/27 01:13:27;;;;;;;6.47;5.05;;;10.00;60.30;;;5.34;100.00;94324.91;4990477;28;20064;-51
2024/02/27 01:15:53;;;;;;;8.15;4.97;;;10.00;60.30;;;5.39;100.00;94316.19;4989448;28;20033;-50
2024/02/27 01:18:19;;;;;;;7.50;5.13;;;10.00;60.30;;;5.33;100.00;94323.31;4989651;28;20463;-50
2024/02/27 01:20:45;;;;;;;7.57;4.90;;;10.00;60.20;;;5.39;100.00;94321.47;4989430;28;20085;-50
2024/02/27 01:23:10;;;;;;;8.38;5.30;;;10.00;60.10;;;5.39;100.00;94316.19;4994544;28;20488;-50
2024/02/27 01:25:36;;;;;;;7.70;5.15;;;10.00;60.00;;;5.38;100.00;94317.25;4990626;28;20432;-51
2024/02/27 01:28:02;;;;;;;7.25;4.90;;;10.00;60.00;;;5.35;100.00;94315.91;4988307;28;20025;-51
2024/02/27 01:30:28;;;;;;;8.75;5.55;;;10.00;60.00;;;5.29;100.00;94312.47;4990122;28;20119;-50
2024/02/27 01:32:54;;;;;;;9.40;5.57;;;10.00;59.90;;;5.23;100.00;94316.19;4988535;28;20512;-53
2024/02/27 01:35:20;;;;;;;10.30;5.05;;;10.00;59.90;;;5.19;100.00;94324.88;4987857;28;20036;-48
2024/02/27 01:37:46;;;;;;;6.63;5.00;;;10.00;59.90;;;5.23;100.00;94326.75;5005085;23;20081;-52
2024/02/27 01:40:12;;;;;;;7.32;5.00;;;10.00;60.70;;;5.23;100.00;94324.09;4997152;28;20029;-50
2024/02/27 01:42:38;;;;;;;6.63;4.97;;;10.00;60.00;;;5.22;100.00;94322.50;4991403;28;20149;-52
2024/02/27 01:45:08;;;;;;;6.72;5.18;;;9.90;60.00;;;5.19;100.00;94319.59;4994903;28;20108;-53
2024/02/27 01:47:34;;;;;;;11.88;5.88;;;9.90;60.00;;;5.17;100.00;94322.50;4994958;28;20021;-50
2024/02/27 01:50:00;;;;;;;6.63;5.28;;;9.90;60.00;;;5.17;100.00;94321.69;4995199;28;20029;-52
2024/02/27 01:52:27;;;;;;;7.63;5.10;;;9.90;60.10;;;5.16;100.00;94320.91;4990369;28;20037;-54
2024/02/27 01:54:53;;;;;;;7.63;5.53;;;9.90;60.10;;;5.13;100.00;94326.69;4998068;28;20086;-53
2024/02/27 01:57:22;;;;;;;9.43;5.68;;;9.90;60.10;;;5.13;100.00;94323.28;4993320;28;20472;-50
2024/02/27 01:59:48;;;;;;;8.30;6.07;;;9.90;60.10;;;5.14;100.00;94319.56;4995544;28;20033;-50
2024/02/27 02:02:15;;;;;;;6.93;5.30;;;9.90;60.20;;;5.14;100.00;94319.56;4995612;28;20029;-57
2024/02/27 02:04:41;;;;;;;8.70;5.78;;;9.90;60.30;;;5.13;100.00;94318.78;4995574;28;20033;-50
2024/02/27 02:07:09;;;;;;;7.93;5.32;;;9.90;60.30;;;5.15;100.00;94324.59;4995865;28;20383;-52
2024/02/27 02:09:35;;;;;;;9.48;5.28;;;9.90;60.30;;;5.17;100.00;94330.44;4985441;28;20037;-53
2024/02/27 02:12:01;;;;;;;10.07;6.20;;;9.90;60.40;;;5.17;100.00;94327.78;4989562;28;20022;-52
2024/02/27 02:14:27;;;;;;;8.45;6.07;;;9.90;60.40;;;5.15;100.00;94329.88;4989232;28;20029;-56
2024/02/27 02:16:53;;;;;;;7.18;6.03;;;9.90;60.50;;;5.16;100.00;94334.09;4989129;28;20388;-52
2024/02/27 02:19:19;;;;;;;9.57;5.95;;;9.90;60.50;;;5.20;100.00;94329.91;4989598;28;20029;-52
2024/02/27 02:21:52;;;;;;;9.40;5.60;;;9.90;60.60;;;5.17;100.00;94335.72;4989001;28;20085;-50
2024/02/27 02:24:21;;;;;;;8.70;5.38;;;9.90;60.60;;;5.22;100.00;94346.25;4987928;28;20021;-50
2024/02/27 02:26:47;;;;;;;10.00;5.93;;;9.90;60.60;;;5.26;100.00;94351.81;4987704;28;20499;-51
2024/02/27 02:29:13;;;;;;;8.88;5.38;;;9.90;60.60;;;5.27;100.00;94354.19;4992231;28;20096;-52
2024/02/27 02:31:39;;;;;;;7.47;5.28;;;9.90;60.50;;;5.28;100.00;94353.13;4995430;28;20149;-50
2024/02/27 02:34:04;;;;;;;9.18;5.75;;;9.90;60.50;;;5.30;100.00;94361.59;4997370;28;20793;-52
2024/02/27 02:36:30;;;;;;;8.98;5.80;;;9.90;60.40;;;5.24;100.00;94359.22;4996927;28;20041;-56
2024/02/27 02:38:57;;;;;;;7.82;5.50;;;9.90;60.40;;;5.22;100.00;94348.91;5015725;28;20123;-50
2024/02/27 02:41:22;;;;;;;8.32;5.43;;;9.90;60.30;;;5.25;100.00;94364.22;5012011;28;20489;-53
2024/02/27 02:43:48;;;;;;;7.70;5.57;;;9.90;60.30;;;5.28;100.00;94376.91;5013544;28;20514;-51
2024/02/27 02:46:14;;;;;;;9.02;5.97;;;10.00;60.30;;;5.21;100.00;94376.38;5013758;28;20498;-52
2024/02/27 02:48:40;;;;;;;9.73;6.20;;;10.00;60.30;;;5.21;100.00;94367.66;5016350;28;20361;-54
2024/02/27 02:51:06;;;;;;;6.53;5.40;;;9.90;60.20;;;5.14;100.00;94367.91;4993586;28;20023;-51
2024/02/27 02:53:32;;;;;;;11.10;5.90;;;9.90;60.30;;;5.18;100.00;94376.88;5020202;28;20020;-50
2024/02/27 02:55:58;;;;;;;8.85;5.70;;;9.90;60.30;;;5.20;100.00;94371.31;5024748;28;20024;-50
2024/02/27 02:58:24;;;;;;;8.13;5.47;;;9.90;60.30;;;5.21;100.00;94383.50;5020012;28;20376;-50
2024/02/27 03:00:50;;;;;;;9.68;5.28;;;9.90;60.30;;;5.14;100.00;94385.56;5026115;28;20021;-51
2024/02/27 03:03:16;;;;;;;7.47;5.47;;;9.90;60.30;;;5.06;100.00;94373.66;5018467;28;20116;-50
2024/02/27 03:05:41;;;;;;;7.05;5.65;;;9.90;60.30;;;5.03;100.00;94384.75;5023402;28;20021;-51
2024/02/27 03:08:07;;;;;;;8.50;5.35;;;9.90;60.30;;;4.98;100.00;94379.44;5025227;28;20029;-49
2024/02/27 03:10:33;;;;;;;8.75;5.28;;;9.90;60.50;;;4.98;100.00;94380.25;5014468;28;20028;-52
2024/02/27 03:12:59;;;;;;;8.57;5.03;;;9.90;60.50;;;4.98;100.00;94382.91;5027872;28;20067;-51
2024/02/27 03:15:25;;;;;;;8.20;5.57;;;9.90;60.60;;;4.98;100.00;94388.19;5020706;28;20021;-50
2024/02/27 03:17:51;;;;;;;9.75;6.55;;;9.80;60.60;;;5.05;100.00;94385.28;5017279;28;20029;-51
2024/02/27 03:20:17;;;;;;;8.13;6.00;;;9.90;60.60;;;5.04;100.00;94376.56;5020156;28;20506;-54
2024/02/27 03:22:42;;;;;;;10.52;5.55;;;9.80;60.60;;;5.05;100.00;94382.66;5021921;28;20025;-51
2024/02/27 03:25:10;;;;;;;8.60;5.80;;;9.90;60.80;;;5.04;100.00;94375.75;5022871;28;20025;-51
2024/02/27 03:27:36;;;;;;;8.82;5.30;;;9.90;60.90;;;5.04;100.00;94379.19;5018895;28;20069;-50
2024/02/27 03:30:03;;;;;;;8.50;5.68;;;9.90;61.10;;;5.13;100.00;94382.13;5016484;28;20043;-53
2024/02/27 03:32:29;;;;;;;8.88;6.43;;;9.90;61.00;;;5.16;100.00;94378.97;5015754;28;20074;-51
2024/02/27 03:34:55;;;;;;;7.95;6.07;;;9.90;61.10;;;5.16;100.00;94386.09;5017141;28;20037;-54
2024/02/27 03:37:21;;;;;;;7.57;6.18;;;9.90;61.10;;;5.18;100.00;94382.16;5026222;28;20044;-54
2024/02/27 03:39:46;;;;;;;7.65;5.55;;;9.90;61.10;;;5.14;100.00;94383.75;5012880;28;20029;-56
2024/02/27 03:42:12;;;;;;;8.75;5.25;;;9.90;61.00;;;5.08;100.00;94372.38;5024140;28;20025;-53
2024/02/27 03:44:42;;;;;;;8.27;6.00;;;9.90;61.80;;;5.08;100.00;94382.94;5011955;28;20017;-53
2024/02/27 03:47:08;;;;;;;9.10;5.75;;;9.90;61.00;;;5.08;100.00;94382.13;5021500;28;20391;-51
2024/02/27 03:49:33;;;;;;;8.98;6.53;;;9.90;61.10;;;5.05;100.00;94385.28;5023522;28;20033;-50
2024/02/27 03:51:59;;;;;;;9.27;6.45;;;9.90;61.10;;;5.08;100.00;94396.13;5016616;28;20398;-50
2024/02/27 03:54:25;;;;;;;8.35;5.63;;;9.90;61.20;;;5.04;100.00;94391.59;5021035;28;20016;-53
2024/02/27 03:56:51;;;;;;;9.20;5.95;;;9.90;61.20;;;5.13;100.00;94410.38;5011007;28;20021;-51
2024/02/27 03:59:17;;;;;;;10.15;5.75;;;9.90;61.30;;;5.05;100.00;94414.31;5023035;28;20119;-51
2024/02/27 04:01:43;;;;;;;9.68;6.10;;;9.90;61.30;;;5.03;100.00;94424.34;5019935;28;20486;-52
2024/02/27 04:04:08;;;;;;;8.68;5.97;;;9.90;61.30;;;5.07;100.00;94434.09;5020616;28;20028;-50
2024/02/27 04:06:34;;;;;;;8.88;5.93;;;9.90;61.40;;;5.05;100.00;94446.78;5015123;28;20087;-51
2024/02/27 04:09:01;;;;;;;9.02;6.35;;;9.90;61.40;;;5.14;100.00;94452.38;5022638;28;20108;-54
2024/02/27 04:11:27;;;;;;;9.80;6.25;;;9.90;61.50;;;5.27;100.00;94469.59;5018747;28;20419;-54
2024/02/27 04:13:53;;;;;;;10.40;6.78;;;9.90;61.40;;;5.25;100.00;94459.28;5021450;28;20025;-51
2024/02/27 04:16:18;;;;;;;9.38;6.60;;;9.90;61.40;;;5.28;100.00;94479.09;5019824;28;20031;-53
2024/02/27 04:18:44;;;;;;;8.48;5.90;;;9.90;61.40;;;5.26;100.00;94476.69;5021990;28;20484;-51
2024/02/27 04:21:10;;;;;;;9.20;6.25;;;9.90;61.40;;;5.26;100.00;94484.63;5018988;28;20021;-52
2024/02/27 04:23:35;;;;;;;8.13;5.97;;;10.00;61.40;;;5.24;100.00;94486.75;5021553;28;20083;-50
2024/02/27 04:26:02;;;;;;;8.30;6.45;;;10.00;61.40;;;5.28;100.00;94495.72;5017412;28;20101;-53
2024/02/27 04:28:28;;;;;;;10.85;6.82;;;9.90;61.60;;;5.25;100.00;94498.88;5017093;28;20025;-51
2024/02/27 04:30:54;;;;;;;9.15;6.32;;;10.00;61.30;;;5.27;100.00;94510.00;5024385;28;20021;-50
2024/02/27 04:33:20;;;;;;;8.65;6.13;;;10.00;61.30;;;5.18;100.00;94508.09;5016041;28;20036;-50
2024/02/27 04:35:46;;;;;;;8.77;6.10;;;10.00;61.40;;;5.22;100.00;94509.16;5022301;28;20016;-52
2024/02/27 04:38:12;;;;;;;9.10;6.38;;;9.90;61.30;;;5.20;100.00;94501.50;5016372;28;20561;-52
2024/02/27 04:40:37;;;;;;;9.70;6.47;;;9.90;61.30;;;5.17;100.00;94509.94;5018831;28;20103;-52
2024/02/27 04:43:03;;;;;;;9.38;6.20;;;10.00;61.50;;;5.18;100.00;94505.44;5019156;28;20460;-52
2024/02/27 04:45:29;;;;;;;7.90;5.82;;;9.90;61.50;;;5.19;100.00;94504.41;5022819;28;20052;-51
2024/02/27 04:47:55;;;;;;;9.55;6.30;;;9.90;61.50;;;5.07;100.00;94496.66;5015910;28;20504;-52
2024/02/27 04:50:21;;;;;;;10.68;6.53;;;9.90;61.60;;;5.13;100.00;94500.94;4999116;28;20029;-55
2024/02/27 04:52:47;;;;;;;10.57;6.30;;;9.90;61.60;;;4.97;100.00;94494.78;5012212;28;20033;-51
2024/02/27 04:55:13;;;;;;;8.13;6.22;;;9.90;61.70;;;4.87;100.00;94497.34;5022717;28;20106;-52
2024/02/27 04:57:38;;;;;;;8.93;6.57;;;9.80;61.80;;;4.87;100.00;94490.22;5016053;28;20025;-54
2024/02/27 05:00:06;;;;;;;9.55;6.45;;;9.80;61.90;;;4.82;100.00;94484.91;5019261;28;20032;-56
2024/02/27 05:02:32;;;;;;;9.23;6.78;;;9.80;62.00;;;4.77;100.00;94478.84;4991776;28;20028;-54
2024/02/27 05:04:58;;;;;;;9.00;6.90;;;9.80;62.20;;;4.78;100.00;94470.66;5025059;28;20024;-54
2024/02/27 05:07:24;;;;;;;9.15;6.68;;;9.70;62.10;;;4.74;100.00;94461.66;5016279;28;20360;-49
2024/02/27 05:09:50;;;;;;;10.95;7.50;;;9.70;62.20;;;4.76;100.00;94459.53;5020289;28;20033;-51
2024/02/27 05:12:16;;;;;;;11.45;7.57;;;9.70;62.30;;;4.73;100.00;94470.63;5014606;28;20480;-54
2024/02/27 05:14:41;;;;;;;11.45;7.07;;;9.60;62.50;;;4.71;100.00;94469.28;5020505;28;20068;-54
2024/02/27 05:17:07;;;;;;;12.75;7.63;;;9.60;62.60;;;4.70;100.00;94460.59;5018451;28;20043;-53
2024/02/27 05:19:33;;;;;;;12.02;7.97;;;9.60;62.60;;;4.70;100.00;94475.59;5024945;28;20518;-54
2024/02/27 05:21:59;;;;;;;10.55;7.32;;;9.60;62.80;;;4.67;100.00;94486.66;5012765;28;20542;-50
2024/02/27 05:24:25;;;;;;;11.93;7.47;;;9.50;62.80;;;4.63;100.00;94497.72;5022536;28;20021;-50
2024/02/27 05:26:51;;;;;;;12.95;7.57;;;9.50;63.00;;;4.61;100.00;94510.38;5010786;28;20022;-54
2024/02/27 05:29:17;;;;;;;11.45;7.28;;;9.50;63.00;;;4.58;100.00;94512.75;5022587;28;20028;-51
2024/02/27 05:31:43;;;;;;;10.73;7.68;;;9.50;63.10;;;4.56;100.00;94514.81;5019284;28;20036;-51
2024/02/27 05:34:08;;;;;;;9.45;6.97;;;9.50;63.20;;;4.56;100.00;94520.88;5016519;28;20024;-52
2024/02/27 05:36:34;;;;;;;9.13;7.43;;;9.50;63.20;;;4.52;100.00;94524.28;5018976;28;20041;-53
2024/02/27 05:39:00;;;;;;;10.02;6.95;;;9.40;63.20;;;4.52;100.00;94521.66;5017505;28;20488;-57
2024/02/27 05:41:26;;;;;;;11.50;7.35;;;9.40;63.30;;;4.47;100.00;94534.78;5018457;28;20017;-54
2024/02/27 05:43:52;;;;;;;12.00;7.15;;;9.40;63.40;;;4.47;100.00;94540.06;5008556;28;20035;-53
2024/02/27 05:46:18;;;;;;;11.82;7.20;;;9.40;63.50;;;4.43;100.00;94536.34;5024942;28;20045;-54
2024/02/27 05:48:44;;;;;;;9.88;7.32;;;9.40;63.70;;;4.47;100.00;94526.88;5029359;28;20495;-52
2024/02/27 05:51:10;;;;;;;11.07;7.65;;;9.40;63.60;;;4.50;100.00;94527.16;5000447;28;20023;-54
2024/02/27 05:53:37;;;;;;;12.18;7.18;;;9.40;63.70;;;4.46;100.00;94531.38;5001537;28;20025;-56
2024/02/27 05:56:04;;;;;;;10.85;6.88;;;9.40;63.80;;;4.40;100.00;94540.28;5028221;28;20167;-53
2024/02/27 05:58:30;;;;;;;10.05;6.95;;;9.30;63.80;;;4.41;100.00;94545.28;5025064;28;20495;-55
2024/02/27 06:00:57;;;;;;;9.98;7.57;;;9.30;63.90;;;4.41;100.00;94563.75;5029002;28;20028;-52
2024/02/27 06:03:24;;;;;;;12.75;7.22;;;9.30;63.90;;;4.37;100.00;94559.22;5028016;28;20028;-54
2024/02/27 06:05:52;;;;;;;10.95;7.43;;;9.30;64.10;;;4.40;100.00;94559.53;5029066;28;20139;-52
2024/02/27 06:08:18;;;;;;;10.07;6.53;;;9.30;64.10;;;4.39;100.00;94557.16;5029230;28;20062;-51
2024/02/27 06:10:45;;;;;;;9.43;7.00;;;9.30;64.10;;;4.39;100.00;94550.03;5023482;28;20035;-53
2024/02/27 06:13:11;;;;;;;11.82;6.80;;;9.30;64.20;;;4.36;100.00;94553.16;5022532;28;20029;-52
2024/02/27 06:15:37;;;;;;;10.70;7.13;;;9.30;64.20;;;4.43;100.00;94555.59;5015564;28;20028;-52
2024/02/27 06:18:10;;;;;;;17.33;8.70;;;9.30;64.20;;;4.41;100.00;94555.84;5023413;28;20106;-50
2024/02/27 06:23:20;;;;;;;10.77;7.93;;;9.30;64.30;;;4.39;100.00;94555.31;5017578;28;20557;-52
2024/02/27 06:25:46;;;;;;;11.88;7.63;;;9.30;64.40;;;4.40;100.00;94554.25;5014496;28;20025;-53
2024/02/27 06:28:12;;;;;;;12.05;8.40;;;9.30;64.40;;;4.41;100.00;94553.19;5021734;28;20025;-53
2024/02/27 06:30:38;;;;;;;11.18;7.70;;;9.30;64.40;;;4.39;100.00;94554.50;5026456;28;20116;-50
2024/02/27 06:33:04;;;;;;;12.05;7.88;;;9.30;64.40;;;4.40;100.00;94550.81;5020078;28;20029;-55
2024/02/27 06:35:29;;;;;;;11.55;7.93;;;9.30;64.40;;;4.30;100.00;94548.91;5022536;28;20078;-55
2024/02/27 06:37:55;;;;;;;10.75;7.75;;;9.30;64.40;;;4.30;100.00;94550.75;5021964;28;20049;-55
2024/02/27 06:40:21;;;;;;;10.48;7.50;;;9.30;64.40;;;4.29;100.00;94563.09;5023077;28;20033;-56
2024/02/27 06:42:47;;;;;;;11.60;7.78;;;9.30;64.40;;;4.22;100.00;94562.53;5020503;28;20569;-50
2024/02/27 06:45:13;;;;;;;12.65;8.15;;;9.30;64.40;;;4.31;100.00;94565.50;5020487;28;20029;-51
2024/02/27 06:47:42;;;;;;;11.15;7.60;;;9.30;64.40;;;4.38;100.00;94581.91;5011702;28;20087;-49
2024/02/27 06:50:10;;;;;;;11.55;8.07;;;9.40;64.40;;;4.38;100.00;94579.28;5012236;28;20071;-54
2024/02/27 06:52:36;;;;;;;9.40;6.50;;;9.40;64.40;;;4.37;100.00;94581.13;4994146;28;20399;-52
2024/02/27 06:55:03;;;;;;;11.65;7.32;;;9.40;64.40;;;4.41;100.00;94590.13;5009150;28;20100;-51
2024/02/27 06:57:29;;;;;;;12.40;7.13;;;9.50;64.50;;;4.50;100.00;94593.09;5007132;28;20029;-53
2024/02/27 06:59:55;;;;;;;11.52;7.35;;;9.50;64.40;;;4.58;100.00;94591.88;5009159;28;20017;-50
2024/02/27 07:02:21;;;;;;;9.85;6.57;;;9.50;64.40;;;4.59;100.00;94599.50;5011040;28;20035;-55
2024/02/27 07:04:47;;;;;;;12.77;7.65;;;9.60;64.40;;;4.69;100.00;94603.28;5011563;28;20032;-50
2024/02/27 07:07:13;;;;;;;9.65;7.00;;;9.60;64.40;;;4.70;100.00;94610.16;5012349;28;20021;-50
2024/02/27 07:09:39;;;;;;;11.75;7.32;;;9.70;64.40;;;4.76;100.00;94615.22;5011887;28;20273;-50
2024/02/27 07:12:05;;;;;;;10.73;7.40;;;9.70;64.30;;;4.78;100.00;94621.03;5011253;28;20021;-54
2024/02/27 07:14:33;;;;;;;11.50;7.55;;;9.80;64.30;;;4.75;100.00;94632.09;5011195;28;20025;-51
2024/02/27 07:17:00;;;;;;;14.25;7.78;;;9.80;64.20;;;4.79;100.00;94632.38;5011991;28;20383;-54
2024/02/27 07:19:26;;;;;;;10.00;7.40;;;9.80;64.10;;;4.87;100.00;94632.72;5012419;28;20045;-52
2024/02/27 07:21:52;;;;;;;11.30;7.25;;;9.90;64.10;;;4.86;100.00;94638.28;5009709;28;20029;-53
2024/02/27 07:24:19;;;;;;;11.80;7.50;;;9.90;64.10;;;4.92;100.00;94636.44;5004916;28;20395;-51
2024/02/27 07:26:45;;;;;;;12.35;8.05;;;9.90;64.00;;;4.96;100.00;94640.19;4993270;28;20086;-53
2024/02/27 07:29:15;;;;;;;9.77;7.15;;;9.90;64.00;;;4.90;100.00;94635.94;5012358;28;20035;-51
2024/02/27 07:31:43;;;;;;;10.90;7.80;;;10.00;64.00;;;4.94;100.00;94629.09;5011505;28;20021;-54
2024/02/27 07:34:11;;;;;;;12.65;7.82;;;10.10;64.00;;;4.97;100.00;94633.88;5011080;28;20025;-53
2024/02/27 07:36:37;;;;;;;12.65;7.20;;;10.10;63.80;;;5.07;100.00;94644.50;5011840;28;20120;-55
2024/02/27 07:39:03;;;;;;;11.05;7.50;;;10.10;63.70;;;5.15;100.00;94644.03;5010596;28;20460;-53
2024/02/27 07:41:28;;;;;;;13.55;7.97;;;10.20;63.80;;;5.19;100.00;94650.41;5011828;28;20460;-51
2024/02/27 07:43:55;;;;;;;11.10;7.40;;;10.30;63.80;;;5.19;100.00;94655.69;5017123;28;20388;-52
2024/02/27 07:46:21;;;;;;;11.23;7.30;;;10.30;63.60;;;5.25;100.00;94661.78;5010595;28;20059;-53
2024/02/27 07:48:46;;;;;;;11.00;7.35;;;10.40;63.50;;;5.32;100.00;94660.50;5011859;28;20033;-53
2024/02/27 07:51:34;;;;;;;10.73;7.10;;;10.50;63.50;;;5.39;100.00;94667.44;5010218;28;20522;-51
2024/02/27 07:54:01;;;;;;;12.23;7.38;;;10.60;64.20;;;5.46;100.00;94673.31;5010465;28;20079;-53
2024/02/27 07:56:30;;;;;;;10.38;6.95;;;10.60;63.30;;;5.47;100.00;94670.41;5010410;28;20391;-54
2024/02/27 07:58:57;;;;;;;10.13;7.05;;;10.70;63.20;;;5.54;100.00;94673.59;4992119;28;20392;-55
2024/02/27 08:01:25;;;;;;;8.88;6.60;;;10.70;63.10;;;5.59;100.00;94672.84;5011017;28;20539;-54
2024/02/27 08:03:54;;;;;;;9.35;6.15;;;10.70;63.00;;;5.52;100.00;94677.56;5010190;28;20106;-56
2024/02/27 08:06:22;;;;;;;13.18;6.45;;;10.80;62.90;;;5.59;100.00;94680.00;5011401;28;20025;-56
2024/02/27 08:08:49;;;;;;;7.90;6.40;;;10.80;62.80;;;5.55;100.00;94677.84;5018702;28;20029;-54
2024/02/27 08:11:15;;;;;;;7.60;6.05;;;10.90;62.60;;;5.54;100.00;94676.25;5029097;28;20063;-51
2024/02/27 08:13:40;;;;;;;10.50;5.97;;;11.00;62.50;;;5.64;100.00;94680.00;5023638;28;20495;-54
2024/02/27 08:16:06;;;;;;;9.05;5.63;;;11.00;62.30;;;5.67;100.00;94669.75;5019679;28;20024;-54
2024/02/27 08:18:32;;;;;;;10.90;6.15;;;11.10;62.20;;;5.65;100.00;94668.41;5003655;28;20029;-55
2024/02/27 08:20:58;;;;;;;9.52;5.82;;;11.20;62.00;;;5.60;100.00;94658.59;5023352;28;20033;-53
2024/02/27 08:23:24;;;;;;;9.98;5.97;;;11.20;61.70;;;5.72;100.00;94668.97;5022352;28;20082;-54
2024/02/27 08:25:50;;;;;;;9.23;5.80;;;11.30;61.50;;;5.70;100.00;94658.66;5025619;28;20542;-54
2024/02/27 08:28:15;;;;;;;7.43;5.38;;;11.30;61.30;;;5.69;100.00;94666.84;5020614;28;20017;-55
2024/02/27 08:30:41;;;;;;;8.77;6.07;;;11.40;61.20;;;5.82;100.00;94660.28;5025733;28;20025;-57
2024/02/27 08:33:07;;;;;;;8.98;6.07;;;11.40;61.00;;;5.92;100.00;94669.09;5019242;28;20057;-54
2024/02/27 08:35:33;;;;;;;7.72;5.68;;;11.40;60.90;;;5.97;100.00;94660.41;5021728;28;20032;-53
2024/02/27 08:38:00;;;;;;;8.23;5.35;;;11.50;60.80;;;5.88;100.00;94664.56;5021564;28;20051;-52
2024/02/27 08:40:26;;;;;;;8.13;5.78;;;11.60;60.70;;;5.93;100.00;94652.19;5022054;28;20053;-52
2024/02/27 08:42:52;;;;;;;9.70;5.95;;;11.70;60.50;;;5.98;100.00;94640.84;5019752;28;20051;-56
2024/02/27 08:45:19;;;;;;;7.47;5.78;;;11.80;60.20;;;6.01;100.00;94643.75;5023600;28;20104;-52
2024/02/27 08:47:45;;;;;;;8.95;5.72;;;11.90;59.90;;;6.12;100.00;94639.31;5017054;28;20025;-56
2024/02/27 08:50:14;;;;;;;7.93;5.82;;;12.10;59.70;;;6.31;100.00;94646.78;5022461;28;20475;-51
2024/02/27 08:52:40;;;;;;;9.35;6.47;;;12.30;59.50;;;6.27;99.38;94649.16;5023554;28;20360;-53
2024/02/27 08:55:07;;;;;;;10.05;6.72;;;12.40;59.20;;;6.29;99.04;94638.31;5021290;28;20035;-53
2024/02/27 08:57:34;;;;;;;7.90;5.85;;;12.60;58.70;;;6.39;99.62;94640.97;5018332;28;20479;-57
2024/02/27 09:00:00;;;;;;;10.23;6.35;;;12.70;58.60;;;6.38;98.04;94645.47;5020780;28;20103;-56
2024/02/27 09:02:27;;;;;;;10.02;6.90;;;12.70;58.20;;;6.48;98.77;94647.34;5004209;28;20049;-54
2024/02/27 09:04:53;;;;;;;10.40;7.05;;;12.80;58.10;;;6.29;98.18;94652.31;5017090;28;20035;-54
2024/02/27 09:07:20;;;;;;;9.57;6.55;;;12.80;57.90;;;6.43;98.18;94650.78;5020845;28;20384;-52
2024/02/27 09:09:46;;;;;;;9.88;6.65;;;12.80;57.80;;;6.42;96.45;94643.88;5022495;28;20032;-53
2024/02/27 09:12:12;;;;;;;10.90;6.07;;;12.80;57.60;;;6.50;94.88;94653.19;5015320;28;20021;-53
2024/02/27 09:14:39;;;;;;;10.77;6.50;;;12.90;57.40;;;6.66;94.98;94649.50;5016566;28;20029;-57
2024/02/27 09:17:05;;;;;;;12.05;6.80;;;12.90;57.20;;;6.75;92.89;94651.66;5017274;28;20163;-54
2024/02/27 09:19:32;;;;;;;10.30;7.10;;;13.00;57.10;;;6.54;94.44;94664.03;5022526;28;20110;-56
2024/02/27 09:22:00;;;;;;;10.43;6.65;;;13.10;57.50;;;6.62;93.78;94655.59;4995936;28;20025;-53
2024/02/27 09:24:27;;;;;;;10.60;6.85;;;13.10;56.70;;;6.67;94.90;94655.59;5017743;28;20033;-51
2024/02/27 09:26:52;;;;;;;11.52;7.25;;;13.10;56.60;;;6.68;92.69;94657.19;5012406;28;20590;-53
2024/02/27 09:29:18;;;;;;;10.38;6.57;;;13.20;56.40;;;6.60;91.44;94658.47;5020796;28;20103;-54
2024/02/27 09:31:47;;;;;;;9.88;7.07;;;13.20;56.20;;;6.41;93.14;94655.53;5018141;28;20021;-54
2024/02/27 09:34:14;;;;;;;9.60;7.22;;;13.30;55.90;;;6.62;93.28;94652.94;5013490;28;20387;-51
2024/02/27 09:36:40;;;;;;;10.82;7.43;;;13.30;55.80;;;6.61;94.50;94656.63;5016433;28;20501;-55
2024/02/27 09:39:07;;;;;;;11.02;7.82;;;13.30;55.60;;;6.83;93.32;94662.50;5015640;28;20086;-52
2024/02/27 09:42:14;;;;;;;11.45;7.40;;;13.40;55.70;;;7.00;92.86;94669.41;5016115;28;20025;-51
2024/02/27 09:44:46;;;;;;;12.27;7.95;;;13.50;55.70;;;7.04;90.68;94675.75;5018013;28;20037;-51
2024/02/27 09:47:15;;;;;;;11.27;7.68;;;13.50;55.60;;;7.06;89.99;94679.75;5014174;28;20044;-52
2024/02/27 09:49:45;;;;;;;11.05;7.43;;;13.60;55.50;;;6.94;90.19;94685.28;5017916;28;20447;-52
2024/02/27 09:52:15;;;;;;;11.18;8.05;;;13.70;55.30;;;7.03;89.83;94687.41;5016876;28;20017;-57
2024/02/27 09:54:43;;;;;;;11.07;7.72;;;13.70;55.00;;;6.95;87.25;94702.75;4999106;28;20128;-53
2024/02/27 09:57:09;;;;;;;12.48;8.23;;;13.70;54.70;;;6.99;89.35;94696.94;5021035;28;20083;-53
2024/02/27 09:59:40;;;;;;;11.15;7.85;;;13.70;54.50;;;6.85;88.72;94704.59;5017095;28;20035;-55
2024/02/27 10:02:17;;;;;;;11.38;8.18;;;13.80;54.40;;;7.08;89.79;94716.53;5023915;28;20100;-55
2024/02/27 10:04:43;;;;;;;12.15;8.20;;;13.80;54.30;;;7.15;89.24;94711.78;5026316;28;20064;-52
2024/02/27 10:07:13;;;;;;;13.55;8.35;;;13.90;54.30;;;6.97;87.78;94721.03;5023575;28;20388;-52
2024/02/27 10:09:45;;;;;;;12.95;7.82;;;13.90;54.10;;;6.98;87.45;94732.41;5023992;28;20025;-53
2024/02/27 10:12:13;;;;;;;10.95;7.88;;;13.90;53.80;;;6.94;86.39;94732.16;5018447;28;20055;-53
2024/02/27 10:14:40;;;;;;;11.45;8.20;;;14.00;53.80;;;7.15;86.28;94727.69;5021227;28;20518;-56
2024/02/27 10:17:09;;;;;;;11.05;8.48;;;14.00;53.60;;;7.25;85.25;94726.91;5019985;28;20021;-51
2024/02/27 10:19:37;;;;;;;11.95;8.77;;;14.00;53.40;;;7.30;86.01;94733.00;5024079;28;20040;-52
2024/02/27 10:22:04;;;;;;;11.32;8.75;;;14.00;53.60;;;7.35;84.64;94725.03;5016432;28;20388;-53